• Join FlightAware (Why Join?)
  • Login
  • US Flag 
03:57AM EDT


 

Airport Tracker/Info


-or-


 

Live Flight TrackerFlight Track Log ✈ N63TV ✈ 16-Nov-2013 ✈ KBOS - KTEB

Flight Track Log - Related Links

Times and Time Zones

All times are in EST time to prevent confusion due to time zone crossing. See the N63TV flight status page for this flight to view local times or setup timezone preferences in your user account.

Time Position Orientation Groundspeed Altitude Reporting Facility
EST Latitude Longitude Course Direction KTS MPH feet Rate Location/Type
09:39PM 42.3667 -71.0000 216° Southwest 79 91 500  Level KA90
09:40PM 42.3500 -71.0167 216° Southwest 124 143 1,200 600 Climbing KA90
09:41PM 42.3333 -71.0500 236° Southwest 113 130 1,800 540 Climbing KA90
09:42PM 42.3167 -71.0833 236° Southwest 114 131 2,300 600 Climbing KA90
09:43PM 42.3000 -71.1167 236° Southwest 114 131 3,000 660 Climbing KA90
09:44PM 42.2667 -71.1500 217° Southwest 114 131 3,800 660 Climbing KA90
09:45PM 42.2500 -71.2000 246° West 113 130 4,400 360 Climbing KA90
09:46PM 42.2347 -71.2392 242° Southwest 131 151 4,600 60 Climbing Boston Center
09:46PM 42.2342 -71.2447 262° West 133 153 4,500 -120 Descending Boston Center
09:47PM 42.2156 -71.2817 236° Southwest 138 159 4,500 60 Level Boston Center
09:47PM 42.2144 -71.2875 256° West 136 157 4,600  Climbing Boston Center
09:48PM 42.1956 -71.3267 237° Southwest 135 155 4,500  Descending Boston Center
09:48PM 42.1947 -71.3306 254° West 137 158 4,600  Climbing Boston Center
09:49PM 42.1772 -71.3750 242° Southwest 141 162 4,500  Descending Boston Center
09:49PM 42.1764 -71.3769 240° Southwest 139 160 4,600  Climbing Boston Center
09:50PM 42.1533 -71.4069 224° Southwest 138 159 4,500 -120 Descending Boston Center
09:50PM 42.1478 -71.4175 235° Southwest 140 161 4,500 60 Level Boston Center
09:51PM 42.1333 -71.4519 241° Southwest 138 159 4,600 60 Climbing Boston Center
09:51PM 42.1297 -71.4631 246° West 139 160 4,600  Level Boston Center
09:52PM 42.1133 -71.4967 237° Southwest 141 162 4,600  Level Boston Center
09:52PM 42.1108 -71.5072 252° West 137 158 4,600  Level Boston Center
09:53PM 42.0931 -71.5444 237° Southwest 140 161 4,600  Level Boston Center
09:53PM 42.0906 -71.5525 247° West 141 162 4,600  Level Boston Center
09:54PM 42.0750 -71.5900 241° Southwest 140 161 4,600  Level Boston Center
09:54PM 42.0717 -71.5967 236° Southwest 138 159 4,600  Level Boston Center
09:55PM 42.0550 -71.6347 239° Southwest 139 160 4,600  Level Boston Center
09:55PM 42.0517 -71.6419 238° Southwest 142 163 4,600  Level Boston Center
09:56PM 42.0308 -71.6889 239° Southwest 137 158 4,600  Level Boston Center
09:57PM 42.0136 -71.7297 240° Southwest 137 158 4,600  Level Boston Center
09:57PM 42.0119 -71.7331 236° Southwest 137 158 4,600  Level Boston Center
09:58PM 41.9889 -71.7719 231° Southwest 134 154 4,600  Level Boston Center
09:59PM 41.9692 -71.8089 234° Southwest 142 163 4,600  Level Boston Center
09:59PM 41.9669 -71.8125 230° Southwest 136 157 4,600  Level Boston Center
09:59PM 41.9633 -71.8308 255° West 141 162 4,600  Level Boston Center
10:00PM 41.9503 -71.8592 238° Southwest 139 160 4,600  Level Boston Center
10:00PM 41.9461 -71.8653 227° Southwest 139 160 4,600  Level Boston Center
10:01PM 41.9261 -71.8975 230° Southwest 136 157 4,600  Level Boston Center
10:01PM 41.9214 -71.9031 221° Southwest 133 153 4,600 -120 Level Boston Center
10:02PM 41.9083 -71.9456 248° West 139 160 4,500  Descending Boston Center
10:02PM 41.9081 -71.9503 265° West 136 157 4,600  Climbing Boston Center
10:03PM 41.8922 -71.9906 242° Southwest 135 155 4,500 -120 Descending Boston Center
10:03PM 41.8856 -72.0000 227° Southwest 128 147 4,500 60 Level Boston Center
10:04PM 41.8683 -72.0272 230° Southwest 131 151 4,600 60 Climbing Boston Center
10:04PM 41.8611 -72.0375 227° Southwest 132 152 4,600  Level Boston Center
10:05PM 41.8431 -72.0619 225° Southwest 131 151 4,600  Level Boston Center
10:05PM 41.8369 -72.0725 232° Southwest 131 151 4,600  Level Boston Center
10:06PM 41.8236 -72.1050 241° Southwest 135 155 4,600  Level Boston Center
10:06PM 41.8181 -72.1147 233° Southwest 135 155 4,600  Level Boston Center
10:07PM 41.8078 -72.1550 251° West 138 159 4,600  Level Boston Center
10:07PM 41.8039 -72.1647 242° Southwest 139 160 4,600  Level Boston Center
10:08PM 41.7883 -72.2111 246° West 136 157 4,600 -60 Level Boston Center
10:09PM 41.7739 -72.2436 239° Southwest 131 151 4,500 -120 Descending Boston Center
10:09PM 41.7653 -72.2519 216° Southwest 131 151 4,500  Level Boston Center
10:10PM 41.7483 -72.2789 230° Southwest 133 153 4,500 60 Level Boston Center
10:10PM 41.7428 -72.2900 236° Southwest 131 151 4,600  Climbing Boston Center
10:11PM 41.7283 -72.3194 237° Southwest 133 153 4,500 -120 Descending Boston Center
10:11PM 41.7242 -72.3294 241° Southwest 130 150 4,500 60 Level Boston Center
10:12PM 41.7056 -72.3567 228° Southwest 131 151 4,600  Climbing Boston Center
10:13PM 41.6842 -72.3944 233° Southwest 132 152 4,500 -120 Descending Boston Center
10:13PM 41.6825 -72.3983 240° Southwest 129 148 4,500 60 Level Boston Center
10:14PM 41.6708 -72.4458 252° West 138 159 4,600  Climbing Boston Center
10:15PM 41.6508 -72.4797 232° Southwest 129 148 4,600  Level Boston Center
10:15PM 41.6456 -72.4858 221° Southwest 130 150 4,600  Level Boston Center
10:16PM 41.6261 -72.5142 227° Southwest 128 147 4,600  Level Boston Center
10:16PM 41.6214 -72.5203 224° Southwest 127 146 4,600  Level Boston Center
10:17PM 41.6086 -72.5608 247° West 131 151 4,600  Level Boston Center
10:17PM 41.6064 -72.5639 226° Southwest 132 152 4,600  Level Boston Center
10:18PM 41.5911 -72.6031 242° Southwest 131 151 4,600 -120 Level Boston Center
10:18PM 41.5936 -72.6053 326° Northwest 128 147 4,500  Descending Boston Center
10:19PM 41.5664 -72.6369 221° Southwest 130 150 4,600 60 Climbing Boston Center
10:19PM 41.5661 -72.6358 108° East 136 157 4,600 -120 Level Boston Center
10:20PM 41.5400 -72.6694 224° Southwest 125 144 4,500  Descending Boston Center
10:21PM 41.5258 -72.7133 247° West 132 152 4,600  Climbing Boston Center
10:22PM 41.5169 -72.7603 256° West 132 152 4,600  Level Boston Center
10:23PM 41.5056 -72.8069 252° West 133 153 4,600  Level Boston Center
10:24PM 41.4853 -72.8472 236° Southwest 133 153 4,600  Level Boston Center
10:25PM 41.4583 -72.8783 221° Southwest 129 148 4,600  Level Boston Center
10:26PM 41.4364 -72.9136 230° Southwest 126 145 4,600  Level Boston Center
10:27PM 41.4117 -72.9467 225° Southwest 126 145 4,600 -60 Level Boston Center
10:28PM 41.3942 -72.9908 242° Southwest 127 146 4,500 -60 Descending Boston Center
10:29PM 41.3789 -73.0344 245° Southwest 129 148 4,500  Level Boston Center
10:30PM 41.3611 -73.0747 240° Southwest 128 147 4,500  Level Boston Center
10:31PM 41.3378 -73.1067 226° Southwest 123 142 4,500  Level Boston Center
10:32PM 41.3125 -73.1375 223° Southwest 123 142 4,500  Level Boston Center
10:33PM 41.2903 -73.1733 230° Southwest 124 143 4,500  Level Boston Center
10:34PM 41.2697 -73.2111 234° Southwest 127 146 4,500  Level Boston Center
10:35PM 41.2569 -73.2519 247° West 131 151 4,500  Level Boston Center
10:36PM 41.2436 -73.2964 248° West 132 152 4,500  Level Boston Center
10:37PM 41.2217 -73.3397 236° Southwest 129 148 4,600  Climbing Boston Center
10:38PM 41.2006 -73.3794 235° Southwest 130 150 4,600  Level Boston Center
10:39PM 41.1789 -73.4164 232° Southwest 127 146 4,600  Level Boston Center
10:40PM 41.1583 -73.4544 234° Southwest 127 146 4,600  Level Boston Center
10:41PM 41.1389 -73.4981 239° Southwest 128 147 4,600  Level Boston Center
10:42PM 41.1206 -73.5372 238° Southwest 126 145 4,600  Level Boston Center
10:43PM 41.0969 -73.5708 227° Southwest 124 143 4,600  Level Boston Center
10:44PM 41.0803 -73.6103 241° Southwest 124 143 4,600  Level Boston Center
10:45PM 41.0622 -73.6475 237° Southwest 120 138 4,600  Level Boston Center
10:46PM 41.0389 -73.6792 226° Southwest 120 138 4,600  Level Boston Center
10:47PM 41.0272 -73.7228 250° West 124 143 4,600  Level Boston Center
10:48PM 41.0200 -73.7692 258° West 129 148 4,600  Level Boston Center
10:49PM 41.0011 -73.8067 236° Southwest 123 142 4,600 -240 Level Boston Center
10:50PM 40.9844 -73.8494 243° Southwest 130 150 4,200 -720 Descending Boston Center
10:51PM 40.9683 -73.8967 246° West 139 160 3,200 -1,020 Descending Boston Center
10:52PM 40.9508 -73.9406 242° Southwest 138 159 2,200 -840 Descending Boston Center
10:53PM 40.9267 -73.9800 231° Southwest 137 158 1,600 -600 Descending Boston Center
10:54PM 40.8978 -74.0128 221° Southwest 133 153 1,100 -540 Descending Boston Center
10:56PM 40.8667 -74.0333 207° Southwest 83 96 500 -540 Descending New York TRACON